createdAt,value
2019-02-24T00:01:31.721Z,73.37
2019-02-24T00:04:39.291Z,89.63
2019-02-24T00:07:46.884Z,95.17
2019-02-24T00:10:55.374Z,94.10
2019-02-24T00:14:02.852Z,86.77
2019-02-24T00:17:10.322Z,73.90
2019-02-24T00:20:17.920Z,94.93
2019-02-24T00:23:25.448Z,85.27
2019-02-24T00:26:33.099Z,70.40
2019-02-24T00:29:41.683Z,77.47
2019-02-24T00:32:49.182Z,85.97
2019-02-24T00:35:56.740Z,82.00
2019-02-24T00:39:04.590Z,76.13
2019-02-24T00:42:13.643Z,80.13
2019-02-24T00:45:21.254Z,81.37
2019-02-24T00:48:28.851Z,88.07
2019-02-24T00:51:36.487Z,93.07
2019-02-24T00:54:44.506Z,57.20
2019-02-24T00:57:52.048Z,47.07
2019-02-24T01:00:59.735Z,46.77
2019-02-24T01:04:08.036Z,42.07
2019-02-24T01:07:15.632Z,41.67
2019-02-24T01:10:23.162Z,40.50
2019-02-24T01:13:30.710Z,39.60
2019-02-24T01:16:38.218Z,38.70
2019-02-24T01:19:46.882Z,46.17
2019-02-24T01:22:54.459Z,57.40
2019-02-24T01:26:02.110Z,61.80
2019-02-24T01:29:09.640Z,51.03
2019-02-24T01:32:17.232Z,47.97
2019-02-24T01:35:24.874Z,53.27
2019-02-24T01:38:32.491Z,55.13
2019-02-24T01:41:40.270Z,58.87
2019-02-24T01:44:47.858Z,65.07
2019-02-24T01:47:55.410Z,59.80
2019-02-24T01:51:04.096Z,55.47
2019-02-24T01:54:11.694Z,60.67
2019-02-24T01:57:19.170Z,62.20
2019-02-24T02:00:26.696Z,56.50
2019-02-24T02:03:34.368Z,60.93
2019-02-24T02:06:42.050Z,61.70
2019-02-24T02:09:49.908Z,61.03
2019-02-24T02:12:57.465Z,58.90
2019-02-24T02:16:06.318Z,57.73
2019-02-24T02:19:13.858Z,64.23
2019-02-24T02:22:21.514Z,61.07
2019-02-24T02:25:29.023Z,66.27
2019-02-24T02:28:43.777Z,63.00
2019-02-24T02:31:46.462Z,71.30
2019-02-24T02:34:54.024Z,71.27
2019-02-24T02:38:04.674Z,69.70
2019-02-24T02:41:12.282Z,60.80
2019-02-24T02:44:19.779Z,64.27
2019-02-24T02:47:27.254Z,66.73
2019-02-24T02:50:34.772Z,77.90
2019-02-24T02:53:42.291Z,82.67
2019-02-24T02:56:49.918Z,74.50
2019-02-24T02:59:57.487Z,72.80
2019-02-24T03:03:05.276Z,78.23
2019-02-24T03:06:38.236Z,76.13
2019-02-24T03:09:45.919Z,80.20
2019-02-24T03:12:53.690Z,84.13
2019-02-24T03:16:01.329Z,85.80
2019-02-24T03:19:10.153Z,86.27
2019-02-24T03:22:17.839Z,80.73
2019-02-24T03:25:25.368Z,81.37
2019-02-24T03:28:33.058Z,81.87
2019-02-24T03:31:40.633Z,74.40
2019-02-24T03:34:48.148Z,70.77
2019-02-24T03:37:55.632Z,71.77
2019-02-24T03:41:03.157Z,65.30
2019-02-24T03:44:10.633Z,61.23
2019-02-24T03:47:18.277Z,52.37
2019-02-24T03:50:25.848Z,53.07
2019-02-24T03:53:33.524Z,48.20
2019-02-24T03:56:41.128Z,52.47
2019-02-24T03:59:49.107Z,54.13
2019-02-24T04:02:56.663Z,47.90
2019-02-24T04:06:04.256Z,45.47
2019-02-24T04:09:11.796Z,45.70
2019-02-24T04:12:19.504Z,45.37
2019-02-24T04:15:27.114Z,48.70
2019-02-24T04:18:34.600Z,46.60
2019-02-24T04:21:42.113Z,53.07
2019-02-24T04:24:49.677Z,53.00
2019-02-24T04:27:57.241Z,53.07
2019-02-24T04:31:04.942Z,53.47
2019-02-24T04:34:12.534Z,51.97
2019-02-24T04:37:20.882Z,56.43
2019-02-24T04:40:28.429Z,59.80
2019-02-24T04:43:35.985Z,55.80
2019-02-24T04:46:43.529Z,53.17
2019-02-24T04:49:51.184Z,59.00
2019-02-24T04:52:58.752Z,60.73
2019-02-24T04:56:06.337Z,57.77
2019-02-24T04:59:13.910Z,58.87
2019-02-24T05:02:21.370Z,54.77
2019-02-24T05:05:28.979Z,60.10
2019-02-24T05:08:36.681Z,69.90
2019-02-24T05:11:44.147Z,77.77
2019-02-24T05:14:51.682Z,89.00
2019-02-24T05:17:59.224Z,90.90
2019-02-24T05:21:06.754Z,92.23
2019-02-24T05:24:14.967Z,89.23
2019-02-24T05:27:22.591Z,81.73
2019-02-24T05:30:31.233Z,84.27
2019-02-24T05:33:38.786Z,79.87
2019-02-24T05:36:46.465Z,85.30
2019-02-24T05:39:53.985Z,89.77
2019-02-24T05:43:01.510Z,118.40
2019-02-24T05:46:09.139Z,99.60
2019-02-24T05:49:16.677Z,113.87
2019-02-24T05:52:24.178Z,134.90
2019-02-24T05:55:31.745Z,132.00
2019-02-24T05:58:39.450Z,135.00
2019-02-24T06:01:47.023Z,136.50
2019-02-24T06:04:54.582Z,140.03
2019-02-24T06:08:03.830Z,141.60
2019-02-24T06:11:11.369Z,139.47
2019-02-24T06:14:18.855Z,121.90
2019-02-24T06:17:26.507Z,120.83
2019-02-24T06:20:34.025Z,126.97
2019-02-24T06:23:41.551Z,115.30
2019-02-24T06:26:49.158Z,129.90
2019-02-24T06:30:04.495Z,126.17
2019-02-24T06:33:05.867Z,123.37
2019-02-24T06:36:13.389Z,139.30
2019-02-24T06:39:20.897Z,143.63
2019-02-24T06:42:28.411Z,128.33
2019-02-24T06:45:36.000Z,120.20
2019-02-24T06:48:43.607Z,131.60
2019-02-24T06:51:51.180Z,136.17
2019-02-24T06:54:58.738Z,130.80
2019-02-24T06:58:06.337Z,131.47
2019-02-24T07:01:13.865Z,117.33
2019-02-24T07:04:21.470Z,128.07
2019-02-24T07:07:28.988Z,122.77
2019-02-24T07:10:36.491Z,122.67
2019-02-24T07:13:44.046Z,124.07
2019-02-24T07:16:51.607Z,119.57
2019-02-24T07:19:59.263Z,106.37
2019-02-24T07:23:07.234Z,101.43
2019-02-24T07:26:14.817Z,100.43
2019-02-24T07:29:22.531Z,101.70
2019-02-24T07:32:30.093Z,99.27
2019-02-24T07:35:37.633Z,104.87
2019-02-24T07:38:45.655Z,144.40
2019-02-24T07:41:53.238Z,73.90
2019-02-24T07:45:00.804Z,86.77
2019-02-24T07:48:08.409Z,72.97
2019-02-24T07:51:15.991Z,72.77
2019-02-24T07:54:23.513Z,76.70
2019-02-24T07:57:31.181Z,74.53
2019-02-24T08:00:38.673Z,78.60
2019-02-24T08:03:46.235Z,85.27
2019-02-24T08:06:53.719Z,92.17
2019-02-24T08:10:01.279Z,94.77
2019-02-24T08:13:08.955Z,71.47
2019-02-24T08:16:16.481Z,72.20
2019-02-24T08:19:23.991Z,66.60
2019-02-24T08:22:31.591Z,77.33
2019-02-24T08:25:39.227Z,69.77
2019-02-24T08:28:46.823Z,76.20
2019-02-24T08:31:54.371Z,69.03
2019-02-24T08:35:01.974Z,74.90
2019-02-24T08:38:09.801Z,71.90
2019-02-24T08:41:18.009Z,65.67
2019-02-24T08:44:26.705Z,66.27
2019-02-24T08:47:34.309Z,73.17
2019-02-24T08:50:42.027Z,72.13
2019-02-24T08:53:49.671Z,74.87
2019-02-24T08:56:57.262Z,60.50
2019-02-24T09:00:05.131Z,62.43
2019-02-24T09:03:14.249Z,64.93
2019-02-24T09:06:22.297Z,69.47
2019-02-24T09:09:29.951Z,61.93
2019-02-24T09:12:37.557Z,78.40
2019-02-24T09:15:45.126Z,58.60
2019-02-24T09:18:52.779Z,65.80
2019-02-24T09:22:00.311Z,60.53
2019-02-24T09:25:07.842Z,64.73
2019-02-24T09:28:15.419Z,60.43
2019-02-24T09:31:23.319Z,63.43
2019-02-24T09:34:30.859Z,96.23
2019-02-24T09:37:38.488Z,66.90
2019-02-24T09:40:46.071Z,55.20
2019-02-24T09:43:53.685Z,58.33
2019-02-24T09:47:01.184Z,63.07
2019-02-24T09:50:08.943Z,56.00
2019-02-24T09:53:16.587Z,63.33
2019-02-24T09:56:24.183Z,53.97
2019-02-24T09:59:31.673Z,60.97
2019-02-24T10:02:39.313Z,58.07
2019-02-24T10:05:46.821Z,57.47
2019-02-24T10:08:54.366Z,55.20
2019-02-24T10:12:01.937Z,58.63
2019-02-24T10:15:10.047Z,57.37
2019-02-24T10:18:17.642Z,60.70
2019-02-24T10:21:25.282Z,59.97
2019-02-24T10:24:32.782Z,57.57
2019-02-24T10:27:40.303Z,57.70
2019-02-24T10:30:49.253Z,54.90
2019-02-24T10:33:57.013Z,59.80
2019-02-24T10:37:04.527Z,57.20
2019-02-24T10:40:13.878Z,57.13
2019-02-24T10:43:21.688Z,55.70
2019-02-24T10:46:29.269Z,52.50
2019-02-24T10:49:36.810Z,50.23
2019-02-24T10:52:44.331Z,47.90
2019-02-24T10:55:52.984Z,47.80
2019-02-24T10:59:00.535Z,53.50
2019-02-24T11:02:08.148Z,59.30
2019-02-24T11:05:16.628Z,54.53
2019-02-24T11:08:24.205Z,53.33
2019-02-24T11:11:31.894Z,48.73
2019-02-24T11:14:40.489Z,50.07
2019-02-24T11:17:48.026Z,54.57
2019-02-24T11:20:55.629Z,53.03
2019-02-24T11:24:03.183Z,54.03
2019-02-24T11:27:10.782Z,51.27
2019-02-24T11:30:18.317Z,87.57
2019-02-24T11:33:25.909Z,81.67
2019-02-24T11:36:33.615Z,100.17
2019-02-24T11:39:41.310Z,95.63
2019-02-24T11:42:48.801Z,93.67
2019-02-24T11:45:56.490Z,125.23
2019-02-24T11:49:04.103Z,96.00
2019-02-24T11:52:11.685Z,107.57
2019-02-24T11:55:20.229Z,83.77
2019-02-24T11:58:27.852Z,70.83
2019-02-24T12:01:35.340Z,74.93
2019-02-24T12:04:42.989Z,73.63
2019-02-24T12:07:50.504Z,70.20
2019-02-24T12:10:59.093Z,59.83
2019-02-24T12:14:06.601Z,65.90
2019-02-24T12:17:14.109Z,44.00
2019-02-24T12:20:21.802Z,38.23
2019-02-24T12:23:29.297Z,28.60
2019-02-24T12:26:36.981Z,21.47
2019-02-24T12:29:44.637Z,17.97
2019-02-24T12:32:52.302Z,18.33
2019-02-24T12:35:59.897Z,23.80
2019-02-24T12:39:07.824Z,23.80
2019-02-24T12:42:16.448Z,27.77
2019-02-24T12:45:24.027Z,32.00
2019-02-24T12:48:31.625Z,39.57
2019-02-24T12:51:39.342Z,31.93
2019-02-24T12:54:46.842Z,36.03
2019-02-24T12:57:54.420Z,24.70
2019-02-24T13:01:01.939Z,22.00
2019-02-24T13:04:09.553Z,30.40
2019-02-24T13:07:17.544Z,31.20
2019-02-24T13:10:25.510Z,20.13
2019-02-24T13:13:33.177Z,22.57
2019-02-24T13:16:41.026Z,34.00
2019-02-24T13:19:48.720Z,29.90
2019-02-24T13:22:56.332Z,26.43
2019-02-24T13:26:04.020Z,42.70
2019-02-24T13:29:26.374Z,46.53
2019-02-24T13:32:36.264Z,28.00
2019-02-24T13:35:43.935Z,25.57
2019-02-24T13:38:51.488Z,31.60
2019-02-24T13:41:59.148Z,30.73
2019-02-24T13:45:08.560Z,28.27
2019-02-24T13:48:16.140Z,28.07
2019-02-24T13:51:25.045Z,33.20
2019-02-24T13:54:32.970Z,28.87
2019-02-24T13:57:41.293Z,22.60
2019-02-24T14:00:49.047Z,29.43
2019-02-24T14:03:56.695Z,23.73
2019-02-24T14:07:04.688Z,26.67
2019-02-24T14:10:13.200Z,25.47
2019-02-24T14:13:20.921Z,21.70
2019-02-24T14:16:28.514Z,20.70
2019-02-24T14:19:36.208Z,19.80
2019-02-24T14:22:44.140Z,21.83
2019-02-24T14:25:51.778Z,21.03
2019-02-24T14:29:00.008Z,30.27
2019-02-24T14:32:09.083Z,26.93
2019-02-24T14:35:16.948Z,22.07
2019-02-24T14:38:24.806Z,27.47
2019-02-24T14:41:32.563Z,23.10
2019-02-24T14:44:40.157Z,17.00
2019-02-24T14:47:50.631Z,17.47
2019-02-24T14:50:58.226Z,21.57
2019-02-24T14:54:05.914Z,21.27
2019-02-24T14:57:14.652Z,23.00
2019-02-24T15:00:23.459Z,37.93
2019-02-24T15:03:31.094Z,29.83
2019-02-24T15:06:39.540Z,23.37
2019-02-24T15:09:48.754Z,40.70
2019-02-24T15:12:56.383Z,22.30
2019-02-24T15:16:04.968Z,20.47
2019-02-24T15:19:12.526Z,19.90
2019-02-24T15:22:20.535Z,18.17
2019-02-24T15:25:28.156Z,30.30
2019-02-24T15:28:37.926Z,22.53
2019-02-24T15:31:46.737Z,34.93
2019-02-24T15:34:54.457Z,47.40
2019-02-24T15:38:02.093Z,30.30
2019-02-24T15:41:09.732Z,30.20
2019-02-24T15:44:17.240Z,36.60
2019-02-24T15:47:24.936Z,36.63
2019-02-24T15:50:32.742Z,52.70
2019-02-24T15:53:40.348Z,29.83
2019-02-24T15:56:47.935Z,27.50
2019-02-24T15:59:55.752Z,31.67
2019-02-24T16:03:03.455Z,31.30
2019-02-24T16:06:11.174Z,35.50
2019-02-24T16:09:19.733Z,43.10
2019-02-24T16:12:27.569Z,35.63
2019-02-24T16:15:35.236Z,31.03
2019-02-24T16:18:42.897Z,29.37
2019-02-24T16:21:50.916Z,69.47
2019-02-24T16:24:58.671Z,61.50
2019-02-24T16:28:06.512Z,69.83
2019-02-24T16:31:14.055Z,57.77
2019-02-24T16:34:21.738Z,59.60
2019-02-24T16:37:29.888Z,55.77
2019-02-24T16:40:37.696Z,60.30
2019-02-24T16:43:45.395Z,57.50
2019-02-24T16:46:53.099Z,60.93
2019-02-24T16:50:00.779Z,62.80
2019-02-24T16:53:08.518Z,58.10
2019-02-24T16:56:16.214Z,62.23
2019-02-24T16:59:24.950Z,74.07
2019-02-24T17:02:32.717Z,82.23
2019-02-24T17:05:40.407Z,51.60
2019-02-24T17:08:52.022Z,63.23
2019-02-24T17:11:57.388Z,57.77
2019-02-24T17:15:05.741Z,58.70
2019-02-24T17:18:13.604Z,58.10
2019-02-24T17:21:21.300Z,54.13
2019-02-24T17:24:28.953Z,67.40
2019-02-24T17:27:36.565Z,65.93
2019-02-24T17:30:44.236Z,63.67
2019-02-24T17:33:51.993Z,60.33
2019-02-24T17:36:59.673Z,76.57
2019-02-24T17:40:08.782Z,72.83
2019-02-24T17:43:16.356Z,67.60
2019-02-24T17:46:23.883Z,57.20
2019-02-24T17:49:31.573Z,60.87
2019-02-24T17:52:39.280Z,55.73
2019-02-24T17:55:46.899Z,58.00
2019-02-24T17:58:54.708Z,56.00
2019-02-24T18:02:02.398Z,54.83
2019-02-24T18:05:10.120Z,57.40
2019-02-24T18:08:17.760Z,58.37
2019-02-24T18:11:25.373Z,56.83
2019-02-24T18:14:32.990Z,56.70
2019-02-24T18:17:40.788Z,57.97
2019-02-24T18:20:48.554Z,61.40
2019-02-24T18:23:56.144Z,60.10
2019-02-24T18:27:03.821Z,62.03
2019-02-24T18:30:15.033Z,60.80
2019-02-24T18:33:22.926Z,90.30
2019-02-24T18:36:30.578Z,77.43
2019-02-24T18:39:38.921Z,75.13
2019-02-24T18:42:48.076Z,95.77
2019-02-24T18:45:55.745Z,65.47
2019-02-24T18:49:03.410Z,67.10
2019-02-24T18:52:11.030Z,107.83
2019-02-24T18:55:19.144Z,87.33
2019-02-24T18:58:26.957Z,78.43
2019-02-24T19:01:34.900Z,77.20
2019-02-24T19:04:42.650Z,64.63
2019-02-24T19:07:52.136Z,57.37
2019-02-24T19:11:00.015Z,64.17
2019-02-24T19:14:08.205Z,64.60
2019-02-24T19:17:16.062Z,65.27
2019-02-24T19:20:23.988Z,72.80
2019-02-24T19:23:31.679Z,85.00
2019-02-24T19:26:39.380Z,89.20
2019-02-24T19:29:47.305Z,62.77
2019-02-24T19:32:54.877Z,63.97
2019-02-24T19:36:02.811Z,52.93
2019-02-24T19:39:14.382Z,64.00
2019-02-24T19:42:21.970Z,71.40
2019-02-24T19:45:29.628Z,77.50
2019-02-24T19:48:41.983Z,76.13
2019-02-24T19:51:47.688Z,68.13
2019-02-24T19:54:55.586Z,84.37
2019-02-24T19:58:03.304Z,103.70
2019-02-24T20:01:11.066Z,89.37
2019-02-24T20:04:18.901Z,85.10
2019-02-24T20:07:26.639Z,63.33
2019-02-24T20:10:34.377Z,56.67
2019-02-24T20:13:42.145Z,61.13
2019-02-24T20:16:50.267Z,42.47
2019-02-24T20:19:58.069Z,45.87
2019-02-24T20:23:06.581Z,48.30
2019-02-24T20:26:21.597Z,56.80
2019-02-24T20:29:31.618Z,81.37
2019-02-24T20:32:48.612Z,154.40
2019-02-24T20:36:08.998Z,147.00
2019-02-24T20:39:22.573Z,179.87
2019-02-24T20:42:30.892Z,163.40
2019-02-24T20:45:38.710Z,170.47
2019-02-24T20:48:46.535Z,157.10
2019-02-24T20:51:54.896Z,167.87
2019-02-24T20:55:02.619Z,171.10
2019-02-24T20:58:10.282Z,148.90
2019-02-24T21:01:17.919Z,141.00
2019-02-24T21:04:25.603Z,158.90
2019-02-24T21:07:33.376Z,184.07
2019-02-24T21:10:41.014Z,153.73
2019-02-24T21:13:48.760Z,152.17
2019-02-24T21:16:56.479Z,158.73
2019-02-24T21:20:04.261Z,181.87
2019-02-24T21:23:11.958Z,159.80
2019-02-24T21:26:20.724Z,156.47
2019-02-24T21:29:28.505Z,168.77
2019-02-24T21:32:37.105Z,184.60
2019-02-24T21:35:46.505Z,144.40
2019-02-24T21:38:54.469Z,147.13
2019-02-24T21:42:02.162Z,156.90
2019-02-24T21:45:13.090Z,161.40
2019-02-24T21:48:21.099Z,187.80
2019-02-24T21:51:28.734Z,206.77
2019-02-24T21:54:36.899Z,165.07
2019-02-24T21:57:44.526Z,150.93
2019-02-24T22:00:52.123Z,160.00
2019-02-24T22:03:59.788Z,125.30
2019-02-24T22:07:08.531Z,94.83
2019-02-24T22:10:18.084Z,80.43
2019-02-24T22:13:25.742Z,68.70
2019-02-24T22:16:33.315Z,61.93
2019-02-24T22:19:41.008Z,68.20
2019-02-24T22:22:48.558Z,64.00
2019-02-24T22:25:56.135Z,68.80
2019-02-24T22:29:03.718Z,67.30
2019-02-24T22:32:11.323Z,66.27
2019-02-24T22:35:18.903Z,59.90
2019-02-24T22:38:26.559Z,60.47
2019-02-24T22:41:34.976Z,61.50
2019-02-24T22:44:42.611Z,62.00
2019-02-24T22:47:50.458Z,65.57
2019-02-24T22:50:58.044Z,60.33
2019-02-24T22:54:05.589Z,60.70
2019-02-24T22:57:13.192Z,70.00
2019-02-24T23:01:13.957Z,68.43
2019-02-24T23:04:22.764Z,71.63
2019-02-24T23:07:30.478Z,94.93
2019-02-24T23:10:38.111Z,105.53
2019-02-24T23:13:45.769Z,120.43
2019-02-24T23:16:53.611Z,130.10
2019-02-24T23:20:01.280Z,128.73
2019-02-24T23:23:10.485Z,104.43
2019-02-24T23:26:18.104Z,87.27
2019-02-24T23:29:26.686Z,55.80
2019-02-24T23:32:34.474Z,52.23
2019-02-24T23:35:42.105Z,54.13
2019-02-24T23:38:49.850Z,49.77
2019-02-24T23:41:57.587Z,49.30
2019-02-24T23:45:10.189Z,46.77
2019-02-24T23:48:14.697Z,48.10
2019-02-24T23:51:22.397Z,49.87
2019-02-24T23:54:29.924Z,48.67
2019-02-24T23:57:38.770Z,45.30
